sensor_id;sensor_type;location;lat;lon;timestamp;P1;durP1;ratioP1;P2;durP2;ratioP2
2698;SDS011;1359;51.798;12.174;2023-04-06T00:00:38;6.93;;;5.13;;
2698;SDS011;1359;51.798;12.174;2023-04-06T00:03:04;5.70;;;4.80;;
2698;SDS011;1359;51.798;12.174;2023-04-06T00:05:30;4.50;;;4.00;;
2698;SDS011;1359;51.798;12.174;2023-04-06T00:07:57;6.60;;;4.73;;
2698;SDS011;1359;51.798;12.174;2023-04-06T00:10:22;6.17;;;3.80;;
2698;SDS011;1359;51.798;12.174;2023-04-06T00:12:47;6.07;;;4.70;;
2698;SDS011;1359;51.798;12.174;2023-04-06T00:15:12;7.50;;;4.97;;
2698;SDS011;1359;51.798;12.174;2023-04-06T00:17:38;6.90;;;5.17;;
2698;SDS011;1359;51.798;12.174;2023-04-06T00:20:03;7.27;;;5.50;;
2698;SDS011;1359;51.798;12.174;2023-04-06T00:22:29;8.43;;;5.57;;
2698;SDS011;1359;51.798;12.174;2023-04-06T00:24:54;9.30;;;6.10;;
2698;SDS011;1359;51.798;12.174;2023-04-06T00:27:20;6.50;;;5.37;;
2698;SDS011;1359;51.798;12.174;2023-04-06T00:29:45;8.13;;;5.47;;
2698;SDS011;1359;51.798;12.174;2023-04-06T00:32:11;6.70;;;5.63;;
2698;SDS011;1359;51.798;12.174;2023-04-06T00:34:36;6.53;;;5.93;;
2698;SDS011;1359;51.798;12.174;2023-04-06T00:37:01;8.20;;;5.17;;
2698;SDS011;1359;51.798;12.174;2023-04-06T00:39:27;5.90;;;4.73;;
2698;SDS011;1359;51.798;12.174;2023-04-06T00:41:52;8.00;;;5.10;;
2698;SDS011;1359;51.798;12.174;2023-04-06T00:44:18;13.60;;;6.17;;
2698;SDS011;1359;51.798;12.174;2023-04-06T00:46:44;6.03;;;4.23;;
2698;SDS011;1359;51.798;12.174;2023-04-06T00:49:10;6.20;;;5.23;;
2698;SDS011;1359;51.798;12.174;2023-04-06T00:51:36;5.43;;;4.63;;
2698;SDS011;1359;51.798;12.174;2023-04-06T00:54:01;5.67;;;4.40;;
2698;SDS011;1359;51.798;12.174;2023-04-06T00:56:28;5.70;;;4.93;;
2698;SDS011;1359;51.798;12.174;2023-04-06T00:58:54;8.63;;;6.33;;
2698;SDS011;1359;51.798;12.174;2023-04-06T01:01:20;7.30;;;5.63;;
2698;SDS011;1359;51.798;12.174;2023-04-06T01:03:47;5.03;;;4.40;;
2698;SDS011;1359;51.798;12.174;2023-04-06T01:06:16;6.00;;;4.73;;
2698;SDS011;1359;51.798;12.174;2023-04-06T01:08:43;7.70;;;4.77;;
2698;SDS011;1359;51.798;12.174;2023-04-06T01:11:20;9.00;;;4.73;;
2698;SDS011;1359;51.798;12.174;2023-04-06T01:13:47;7.63;;;4.63;;
2698;SDS011;1359;51.798;12.174;2023-04-06T01:16:31;6.10;;;5.47;;
2698;SDS011;1359;51.798;12.174;2023-04-06T01:19:23;8.50;;;5.70;;
2698;SDS011;1359;51.798;12.174;2023-04-06T01:21:51;6.73;;;5.00;;
2698;SDS011;1359;51.798;12.174;2023-04-06T01:24:41;6.90;;;4.90;;
2698;SDS011;1359;51.798;12.174;2023-04-06T01:27:35;6.83;;;4.37;;
2698;SDS011;1359;51.798;12.174;2023-04-06T01:30:17;7.10;;;4.80;;
2698;SDS011;1359;51.798;12.174;2023-04-06T01:32:49;4.27;;;3.87;;
2698;SDS011;1359;51.798;12.174;2023-04-06T01:35:21;5.13;;;4.67;;
2698;SDS011;1359;51.798;12.174;2023-04-06T01:37:58;7.33;;;4.57;;
2698;SDS011;1359;51.798;12.174;2023-04-06T01:40:29;5.93;;;4.67;;
2698;SDS011;1359;51.798;12.174;2023-04-06T01:42:55;5.17;;;4.67;;
2698;SDS011;1359;51.798;12.174;2023-04-06T01:45:29;5.90;;;4.43;;
2698;SDS011;1359;51.798;12.174;2023-04-06T01:47:59;4.97;;;4.53;;
2698;SDS011;1359;51.798;12.174;2023-04-06T01:50:26;7.80;;;5.10;;
2698;SDS011;1359;51.798;12.174;2023-04-06T01:52:52;5.97;;;5.10;;
2698;SDS011;1359;51.798;12.174;2023-04-06T01:55:17;7.00;;;5.30;;
2698;SDS011;1359;51.798;12.174;2023-04-06T01:57:58;7.90;;;4.77;;
2698;SDS011;1359;51.798;12.174;2023-04-06T02:00:34;6.90;;;5.07;;
2698;SDS011;1359;51.798;12.174;2023-04-06T02:03:00;6.10;;;5.50;;
2698;SDS011;1359;51.798;12.174;2023-04-06T02:05:28;6.40;;;5.80;;
2698;SDS011;1359;51.798;12.174;2023-04-06T02:07:55;6.60;;;5.37;;
2698;SDS011;1359;51.798;12.174;2023-04-06T02:10:29;6.00;;;5.20;;
2698;SDS011;1359;51.798;12.174;2023-04-06T02:12:57;7.13;;;4.80;;
2698;SDS011;1359;51.798;12.174;2023-04-06T02:15:25;6.57;;;5.47;;
2698;SDS011;1359;51.798;12.174;2023-04-06T02:17:51;6.40;;;5.07;;
2698;SDS011;1359;51.798;12.174;2023-04-06T02:20:16;6.17;;;5.30;;
2698;SDS011;1359;51.798;12.174;2023-04-06T02:22:42;6.47;;;4.70;;
2698;SDS011;1359;51.798;12.174;2023-04-06T02:25:07;10.13;;;5.13;;
2698;SDS011;1359;51.798;12.174;2023-04-06T02:27:33;6.23;;;5.00;;
2698;SDS011;1359;51.798;12.174;2023-04-06T02:29:58;6.13;;;4.90;;
2698;SDS011;1359;51.798;12.174;2023-04-06T02:32:23;5.00;;;4.50;;
2698;SDS011;1359;51.798;12.174;2023-04-06T02:34:49;6.60;;;4.80;;
2698;SDS011;1359;51.798;12.174;2023-04-06T02:37:17;14.07;;;6.00;;
2698;SDS011;1359;51.798;12.174;2023-04-06T02:39:42;7.97;;;5.37;;
2698;SDS011;1359;51.798;12.174;2023-04-06T02:42:08;5.67;;;4.57;;
2698;SDS011;1359;51.798;12.174;2023-04-06T02:44:34;8.03;;;6.10;;
2698;SDS011;1359;51.798;12.174;2023-04-06T02:46:59;6.63;;;4.77;;
2698;SDS011;1359;51.798;12.174;2023-04-06T02:49:25;7.13;;;5.00;;
2698;SDS011;1359;51.798;12.174;2023-04-06T02:51:54;7.40;;;5.70;;
2698;SDS011;1359;51.798;12.174;2023-04-06T02:54:26;11.37;;;4.70;;
2698;SDS011;1359;51.798;12.174;2023-04-06T02:56:52;7.43;;;4.70;;
2698;SDS011;1359;51.798;12.174;2023-04-06T02:59:18;9.67;;;5.07;;
2698;SDS011;1359;51.798;12.174;2023-04-06T03:01:53;7.07;;;5.40;;
2698;SDS011;1359;51.798;12.174;2023-04-06T03:04:18;6.63;;;5.40;;
2698;SDS011;1359;51.798;12.174;2023-04-06T03:06:44;5.63;;;5.13;;
2698;SDS011;1359;51.798;12.174;2023-04-06T03:09:19;6.00;;;5.30;;
2698;SDS011;1359;51.798;12.174;2023-04-06T03:11:45;5.13;;;4.63;;
2698;SDS011;1359;51.798;12.174;2023-04-06T03:14:10;5.33;;;4.80;;
2698;SDS011;1359;51.798;12.174;2023-04-06T03:16:35;6.67;;;4.53;;
2698;SDS011;1359;51.798;12.174;2023-04-06T03:19:02;7.50;;;5.47;;
2698;SDS011;1359;51.798;12.174;2023-04-06T03:21:31;6.27;;;5.23;;
2698;SDS011;1359;51.798;12.174;2023-04-06T03:23:56;9.23;;;5.80;;
2698;SDS011;1359;51.798;12.174;2023-04-06T03:26:21;5.97;;;5.00;;
2698;SDS011;1359;51.798;12.174;2023-04-06T03:28:50;7.53;;;4.87;;
2698;SDS011;1359;51.798;12.174;2023-04-06T03:31:15;5.93;;;5.33;;
2698;SDS011;1359;51.798;12.174;2023-04-06T03:33:50;6.30;;;5.70;;
2698;SDS011;1359;51.798;12.174;2023-04-06T03:36:21;11.77;;;6.03;;
2698;SDS011;1359;51.798;12.174;2023-04-06T03:38:46;9.60;;;6.10;;
2698;SDS011;1359;51.798;12.174;2023-04-06T03:41:13;5.77;;;5.10;;
2698;SDS011;1359;51.798;12.174;2023-04-06T03:43:42;7.03;;;5.43;;
2698;SDS011;1359;51.798;12.174;2023-04-06T03:46:07;7.03;;;5.60;;
2698;SDS011;1359;51.798;12.174;2023-04-06T03:48:32;7.87;;;5.40;;
2698;SDS011;1359;51.798;12.174;2023-04-06T03:51:02;8.70;;;5.63;;
2698;SDS011;1359;51.798;12.174;2023-04-06T03:53:27;6.73;;;5.17;;
2698;SDS011;1359;51.798;12.174;2023-04-06T03:55:53;14.73;;;5.70;;
2698;SDS011;1359;51.798;12.174;2023-04-06T03:58:19;7.17;;;5.80;;
2698;SDS011;1359;51.798;12.174;2023-04-06T04:00:45;7.23;;;6.00;;
2698;SDS011;1359;51.798;12.174;2023-04-06T04:03:10;6.90;;;5.23;;
2698;SDS011;1359;51.798;12.174;2023-04-06T04:05:36;8.70;;;5.70;;
2698;SDS011;1359;51.798;12.174;2023-04-06T04:08:01;8.00;;;5.90;;
2698;SDS011;1359;51.798;12.174;2023-04-06T04:10:26;11.17;;;6.80;;
2698;SDS011;1359;51.798;12.174;2023-04-06T04:12:52;7.77;;;5.70;;
2698;SDS011;1359;51.798;12.174;2023-04-06T04:15:17;7.10;;;6.40;;
2698;SDS011;1359;51.798;12.174;2023-04-06T04:17:42;10.13;;;6.07;;
2698;SDS011;1359;51.798;12.174;2023-04-06T04:20:12;6.80;;;6.10;;
2698;SDS011;1359;51.798;12.174;2023-04-06T04:22:37;8.70;;;6.40;;
2698;SDS011;1359;51.798;12.174;2023-04-06T04:25:02;6.47;;;5.87;;
2698;SDS011;1359;51.798;12.174;2023-04-06T04:27:30;7.87;;;6.93;;
2698;SDS011;1359;51.798;12.174;2023-04-06T04:29:55;8.70;;;6.47;;
2698;SDS011;1359;51.798;12.174;2023-04-06T04:32:21;7.33;;;6.63;;
2698;SDS011;1359;51.798;12.174;2023-04-06T04:34:46;6.77;;;6.17;;
2698;SDS011;1359;51.798;12.174;2023-04-06T04:37:21;8.43;;;6.90;;
2698;SDS011;1359;51.798;12.174;2023-04-06T04:39:50;14.20;;;8.17;;
2698;SDS011;1359;51.798;12.174;2023-04-06T04:42:16;16.97;;;6.47;;
2698;SDS011;1359;51.798;12.174;2023-04-06T04:44:46;13.20;;;6.17;;
2698;SDS011;1359;51.798;12.174;2023-04-06T04:47:13;8.97;;;6.30;;
2698;SDS011;1359;51.798;12.174;2023-04-06T04:49:43;7.70;;;6.70;;
2698;SDS011;1359;51.798;12.174;2023-04-06T04:52:10;6.90;;;6.20;;
2698;SDS011;1359;51.798;12.174;2023-04-06T04:54:46;7.60;;;6.80;;
2698;SDS011;1359;51.798;12.174;2023-04-06T04:57:18;9.40;;;6.97;;
2698;SDS011;1359;51.798;12.174;2023-04-06T04:59:44;8.30;;;7.37;;
2698;SDS011;1359;51.798;12.174;2023-04-06T05:02:16;11.80;;;8.13;;
2698;SDS011;1359;51.798;12.174;2023-04-06T05:04:51;10.20;;;8.03;;
2698;SDS011;1359;51.798;12.174;2023-04-06T05:07:21;13.20;;;8.93;;
2698;SDS011;1359;51.798;12.174;2023-04-06T05:09:46;13.43;;;8.60;;
2698;SDS011;1359;51.798;12.174;2023-04-06T05:12:12;9.27;;;8.10;;
2698;SDS011;1359;51.798;12.174;2023-04-06T05:14:47;11.60;;;7.77;;
2698;SDS011;1359;51.798;12.174;2023-04-06T05:17:15;7.53;;;6.50;;
2698;SDS011;1359;51.798;12.174;2023-04-06T05:19:41;9.07;;;8.17;;
2698;SDS011;1359;51.798;12.174;2023-04-06T05:22:06;10.30;;;8.37;;
2698;SDS011;1359;51.798;12.174;2023-04-06T05:24:34;8.80;;;7.90;;
2698;SDS011;1359;51.798;12.174;2023-04-06T05:27:00;10.97;;;8.33;;
2698;SDS011;1359;51.798;12.174;2023-04-06T05:29:27;9.93;;;7.80;;
2698;SDS011;1359;51.798;12.174;2023-04-06T05:31:52;8.90;;;8.00;;
2698;SDS011;1359;51.798;12.174;2023-04-06T05:34:18;8.77;;;7.60;;
2698;SDS011;1359;51.798;12.174;2023-04-06T05:36:44;8.60;;;7.77;;
2698;SDS011;1359;51.798;12.174;2023-04-06T05:39:21;8.87;;;7.97;;
2698;SDS011;1359;51.798;12.174;2023-04-06T05:41:49;8.37;;;7.53;;
2698;SDS011;1359;51.798;12.174;2023-04-06T05:44:22;9.53;;;8.17;;
2698;SDS011;1359;51.798;12.174;2023-04-06T05:46:58;12.60;;;8.60;;
2698;SDS011;1359;51.798;12.174;2023-04-06T05:49:23;9.53;;;8.20;;
2698;SDS011;1359;51.798;12.174;2023-04-06T05:51:48;10.50;;;7.73;;
2698;SDS011;1359;51.798;12.174;2023-04-06T05:54:14;12.17;;;8.53;;
2698;SDS011;1359;51.798;12.174;2023-04-06T05:56:40;13.60;;;7.90;;
2698;SDS011;1359;51.798;12.174;2023-04-06T05:59:08;15.27;;;8.53;;
2698;SDS011;1359;51.798;12.174;2023-04-06T06:01:34;9.57;;;7.23;;
2698;SDS011;1359;51.798;12.174;2023-04-06T06:04:00;9.63;;;7.40;;
2698;SDS011;1359;51.798;12.174;2023-04-06T06:06:29;8.73;;;7.40;;
2698;SDS011;1359;51.798;12.174;2023-04-06T06:09:15;7.60;;;6.87;;
2698;SDS011;1359;51.798;12.174;2023-04-06T06:11:48;8.80;;;6.60;;
2698;SDS011;1359;51.798;12.174;2023-04-06T06:14:16;7.17;;;6.40;;
2698;SDS011;1359;51.798;12.174;2023-04-06T06:16:42;12.60;;;6.60;;
2698;SDS011;1359;51.798;12.174;2023-04-06T06:19:10;8.20;;;7.40;;
2698;SDS011;1359;51.798;12.174;2023-04-06T06:21:36;9.07;;;7.33;;
2698;SDS011;1359;51.798;12.174;2023-04-06T06:24:03;7.50;;;6.73;;
2698;SDS011;1359;51.798;12.174;2023-04-06T06:26:29;9.07;;;7.03;;
2698;SDS011;1359;51.798;12.174;2023-04-06T06:28:54;6.20;;;5.60;;
2698;SDS011;1359;51.798;12.174;2023-04-06T06:31:20;15.83;;;8.00;;
2698;SDS011;1359;51.798;12.174;2023-04-06T06:33:50;12.70;;;11.13;;
2698;SDS011;1359;51.798;12.174;2023-04-06T06:36:17;11.93;;;9.33;;
2698;SDS011;1359;51.798;12.174;2023-04-06T06:38:43;12.83;;;8.53;;
2698;SDS011;1359;51.798;12.174;2023-04-06T06:41:09;9.07;;;7.23;;
2698;SDS011;1359;51.798;12.174;2023-04-06T06:43:36;10.27;;;8.00;;
2698;SDS011;1359;51.798;12.174;2023-04-06T06:46:05;11.20;;;8.30;;
2698;SDS011;1359;51.798;12.174;2023-04-06T06:48:31;10.27;;;7.87;;
2698;SDS011;1359;51.798;12.174;2023-04-06T06:50:57;8.70;;;7.73;;
2698;SDS011;1359;51.798;12.174;2023-04-06T06:53:22;9.03;;;8.13;;
2698;SDS011;1359;51.798;12.174;2023-04-06T06:55:48;10.93;;;9.07;;
2698;SDS011;1359;51.798;12.174;2023-04-06T06:58:18;10.50;;;8.60;;
2698;SDS011;1359;51.798;12.174;2023-04-06T07:00:43;10.70;;;9.80;;
2698;SDS011;1359;51.798;12.174;2023-04-06T07:03:09;8.57;;;7.77;;
2698;SDS011;1359;51.798;12.174;2023-04-06T07:05:34;8.60;;;7.70;;
2698;SDS011;1359;51.798;12.174;2023-04-06T07:08:00;11.00;;;7.50;;
2698;SDS011;1359;51.798;12.174;2023-04-06T07:10:25;8.23;;;7.50;;
2698;SDS011;1359;51.798;12.174;2023-04-06T07:12:51;9.93;;;8.93;;
2698;SDS011;1359;51.798;12.174;2023-04-06T07:15:16;11.10;;;8.50;;
2698;SDS011;1359;51.798;12.174;2023-04-06T07:17:41;8.93;;;8.10;;
2698;SDS011;1359;51.798;12.174;2023-04-06T07:20:08;10.03;;;8.33;;
2698;SDS011;1359;51.798;12.174;2023-04-06T07:22:34;9.73;;;8.00;;
2698;SDS011;1359;51.798;12.174;2023-04-06T07:24:59;12.03;;;7.60;;
2698;SDS011;1359;51.798;12.174;2023-04-06T07:27:24;15.10;;;9.10;;
2698;SDS011;1359;51.798;12.174;2023-04-06T07:29:50;13.03;;;9.93;;
2698;SDS011;1359;51.798;12.174;2023-04-06T07:32:15;9.10;;;8.07;;
2698;SDS011;1359;51.798;12.174;2023-04-06T07:34:40;14.23;;;9.20;;
2698;SDS011;1359;51.798;12.174;2023-04-06T07:37:06;12.10;;;9.40;;
2698;SDS011;1359;51.798;12.174;2023-04-06T07:39:32;10.67;;;8.73;;
2698;SDS011;1359;51.798;12.174;2023-04-06T07:41:58;11.47;;;9.77;;
2698;SDS011;1359;51.798;12.174;2023-04-06T07:44:23;13.33;;;9.40;;
2698;SDS011;1359;51.798;12.174;2023-04-06T07:46:49;13.30;;;9.53;;
2698;SDS011;1359;51.798;12.174;2023-04-06T07:49:14;9.60;;;8.60;;
2698;SDS011;1359;51.798;12.174;2023-04-06T07:51:40;12.10;;;10.90;;
2698;SDS011;1359;51.798;12.174;2023-04-06T07:54:05;11.30;;;9.70;;
2698;SDS011;1359;51.798;12.174;2023-04-06T07:56:31;9.13;;;8.23;;
2698;SDS011;1359;51.798;12.174;2023-04-06T07:58:56;10.77;;;9.67;;
2698;SDS011;1359;51.798;12.174;2023-04-06T08:01:23;10.97;;;9.63;;
2698;SDS011;1359;51.798;12.174;2023-04-06T08:03:48;14.63;;;9.37;;
2698;SDS011;1359;51.798;12.174;2023-04-06T08:06:14;11.13;;;9.03;;
2698;SDS011;1359;51.798;12.174;2023-04-06T08:08:39;14.37;;;10.43;;
2698;SDS011;1359;51.798;12.174;2023-04-06T08:11:05;13.77;;;9.67;;
2698;SDS011;1359;51.798;12.174;2023-04-06T08:13:30;12.00;;;10.50;;
2698;SDS011;1359;51.798;12.174;2023-04-06T08:15:55;11.70;;;10.07;;
2698;SDS011;1359;51.798;12.174;2023-04-06T08:18:21;14.73;;;11.20;;
2698;SDS011;1359;51.798;12.174;2023-04-06T08:20:47;31.07;;;21.17;;
2698;SDS011;1359;51.798;12.174;2023-04-06T08:23:13;12.43;;;11.23;;
2698;SDS011;1359;51.798;12.174;2023-04-06T08:25:39;13.47;;;10.80;;
2698;SDS011;1359;51.798;12.174;2023-04-06T08:28:04;13.20;;;10.80;;
2698;SDS011;1359;51.798;12.174;2023-04-06T08:30:30;11.03;;;9.90;;
2698;SDS011;1359;51.798;12.174;2023-04-06T08:32:55;16.37;;;13.57;;
2698;SDS011;1359;51.798;12.174;2023-04-06T08:35:20;11.10;;;9.40;;
2698;SDS011;1359;51.798;12.174;2023-04-06T08:37:45;14.90;;;11.37;;
2698;SDS011;1359;51.798;12.174;2023-04-06T08:40:11;15.53;;;10.40;;
2698;SDS011;1359;51.798;12.174;2023-04-06T08:42:39;19.00;;;11.37;;
2698;SDS011;1359;51.798;12.174;2023-04-06T08:45:05;11.40;;;9.47;;
2698;SDS011;1359;51.798;12.174;2023-04-06T08:47:30;12.10;;;10.87;;
2698;SDS011;1359;51.798;12.174;2023-04-06T08:49:55;13.40;;;12.00;;
2698;SDS011;1359;51.798;12.174;2023-04-06T08:52:21;18.57;;;12.37;;
2698;SDS011;1359;51.798;12.174;2023-04-06T08:54:47;13.73;;;10.13;;
2698;SDS011;1359;51.798;12.174;2023-04-06T08:57:12;10.13;;;9.17;;
2698;SDS011;1359;51.798;12.174;2023-04-06T08:59:38;17.30;;;12.83;;
2698;SDS011;1359;51.798;12.174;2023-04-06T09:02:04;18.40;;;10.63;;
2698;SDS011;1359;51.798;12.174;2023-04-06T09:04:32;10.90;;;9.10;;
2698;SDS011;1359;51.798;12.174;2023-04-06T09:06:58;10.60;;;9.60;;
2698;SDS011;1359;51.798;12.174;2023-04-06T09:09:24;10.57;;;9.57;;
2698;SDS011;1359;51.798;12.174;2023-04-06T09:11:50;15.50;;;8.83;;
2698;SDS011;1359;51.798;12.174;2023-04-06T09:14:17;12.23;;;8.87;;
2698;SDS011;1359;51.798;12.174;2023-04-06T09:16:44;9.90;;;9.00;;
2698;SDS011;1359;51.798;12.174;2023-04-06T09:19:11;10.40;;;8.87;;
2698;SDS011;1359;51.798;12.174;2023-04-06T09:21:36;13.73;;;11.10;;
2698;SDS011;1359;51.798;12.174;2023-04-06T09:24:02;11.00;;;9.40;;
2698;SDS011;1359;51.798;12.174;2023-04-06T09:26:28;12.60;;;8.83;;
2698;SDS011;1359;51.798;12.174;2023-04-06T09:28:54;12.70;;;10.57;;
2698;SDS011;1359;51.798;12.174;2023-04-06T09:31:23;14.30;;;10.60;;
2698;SDS011;1359;51.798;12.174;2023-04-06T09:33:49;11.07;;;9.93;;
2698;SDS011;1359;51.798;12.174;2023-04-06T09:36:14;13.20;;;10.33;;
2698;SDS011;1359;51.798;12.174;2023-04-06T09:39:03;16.77;;;9.57;;
2698;SDS011;1359;51.798;12.174;2023-04-06T09:41:29;13.50;;;10.10;;
2698;SDS011;1359;51.798;12.174;2023-04-06T09:46:27;11.90;;;9.50;;
2698;SDS011;1359;51.798;12.174;2023-04-06T09:48:52;10.83;;;9.43;;
2698;SDS011;1359;51.798;12.174;2023-04-06T09:51:18;14.43;;;10.17;;
2698;SDS011;1359;51.798;12.174;2023-04-06T09:53:43;11.47;;;9.27;;
2698;SDS011;1359;51.798;12.174;2023-04-06T09:56:11;11.67;;;9.53;;
2698;SDS011;1359;51.798;12.174;2023-04-06T09:58:38;16.37;;;10.07;;
2698;SDS011;1359;51.798;12.174;2023-04-06T10:01:09;10.60;;;9.23;;
2698;SDS011;1359;51.798;12.174;2023-04-06T10:03:39;13.63;;;11.47;;
2698;SDS011;1359;51.798;12.174;2023-04-06T10:06:12;14.70;;;10.40;;
2698;SDS011;1359;51.798;12.174;2023-04-06T10:08:38;12.03;;;10.07;;
2698;SDS011;1359;51.798;12.174;2023-04-06T10:11:06;11.07;;;8.90;;
2698;SDS011;1359;51.798;12.174;2023-04-06T10:13:32;14.30;;;10.60;;
2698;SDS011;1359;51.798;12.174;2023-04-06T10:15:58;11.27;;;9.63;;
2698;SDS011;1359;51.798;12.174;2023-04-06T10:18:25;10.83;;;8.40;;
2698;SDS011;1359;51.798;12.174;2023-04-06T10:20:55;10.27;;;8.90;;
2698;SDS011;1359;51.798;12.174;2023-04-06T10:23:27;12.90;;;10.57;;
2698;SDS011;1359;51.798;12.174;2023-04-06T10:25:58;11.20;;;9.67;;
2698;SDS011;1359;51.798;12.174;2023-04-06T10:28:24;12.17;;;9.20;;
2698;SDS011;1359;51.798;12.174;2023-04-06T10:30:56;10.47;;;9.37;;
2698;SDS011;1359;51.798;12.174;2023-04-06T10:33:21;14.10;;;10.97;;
2698;SDS011;1359;51.798;12.174;2023-04-06T10:35:47;12.17;;;10.33;;
2698;SDS011;1359;51.798;12.174;2023-04-06T10:38:12;11.20;;;10.07;;
2698;SDS011;1359;51.798;12.174;2023-04-06T10:40:40;14.10;;;9.80;;
2698;SDS011;1359;51.798;12.174;2023-04-06T10:45:42;11.57;;;9.83;;
2698;SDS011;1359;51.798;12.174;2023-04-06T10:48:18;13.00;;;10.87;;
2698;SDS011;1359;51.798;12.174;2023-04-06T10:50:44;14.40;;;12.90;;
2698;SDS011;1359;51.798;12.174;2023-04-06T10:53:10;11.67;;;10.17;;
2698;SDS011;1359;51.798;12.174;2023-04-06T10:55:35;12.83;;;11.43;;
2698;SDS011;1359;51.798;12.174;2023-04-06T10:58:06;13.67;;;12.17;;
2698;SDS011;1359;51.798;12.174;2023-04-06T11:00:31;11.67;;;9.30;;
2698;SDS011;1359;51.798;12.174;2023-04-06T11:02:59;18.20;;;12.83;;
2698;SDS011;1359;51.798;12.174;2023-04-06T11:05:26;15.27;;;11.70;;
2698;SDS011;1359;51.798;12.174;2023-04-06T11:07:51;10.93;;;9.70;;
2698;SDS011;1359;51.798;12.174;2023-04-06T11:10:20;19.43;;;10.70;;
2698;SDS011;1359;51.798;12.174;2023-04-06T11:12:51;12.23;;;10.33;;
2698;SDS011;1359;51.798;12.174;2023-04-06T11:15:16;17.03;;;10.20;;
2698;SDS011;1359;51.798;12.174;2023-04-06T11:17:42;14.20;;;10.93;;
2698;SDS011;1359;51.798;12.174;2023-04-06T11:20:09;13.30;;;11.13;;
2698;SDS011;1359;51.798;12.174;2023-04-06T11:22:35;12.80;;;10.60;;
2698;SDS011;1359;51.798;12.174;2023-04-06T11:25:06;12.90;;;11.20;;
2698;SDS011;1359;51.798;12.174;2023-04-06T11:27:33;14.57;;;10.40;;
2698;SDS011;1359;51.798;12.174;2023-04-06T11:29:59;12.40;;;10.80;;
2698;SDS011;1359;51.798;12.174;2023-04-06T11:32:25;10.30;;;9.20;;
2698;SDS011;1359;51.798;12.174;2023-04-06T11:34:50;14.50;;;11.80;;
2698;SDS011;1359;51.798;12.174;2023-04-06T11:37:15;13.53;;;9.80;;
2698;SDS011;1359;51.798;12.174;2023-04-06T11:39:48;13.97;;;12.53;;
2698;SDS011;1359;51.798;12.174;2023-04-06T11:42:20;12.88;;;10.90;;
2698;SDS011;1359;51.798;12.174;2023-04-06T11:44:45;17.77;;;11.00;;
2698;SDS011;1359;51.798;12.174;2023-04-06T11:47:11;12.50;;;10.50;;
2698;SDS011;1359;51.798;12.174;2023-04-06T11:49:37;15.13;;;10.63;;
2698;SDS011;1359;51.798;12.174;2023-04-06T11:52:03;17.77;;;11.50;;
2698;SDS011;1359;51.798;12.174;2023-04-06T11:54:39;13.00;;;9.37;;
2698;SDS011;1359;51.798;12.174;2023-04-06T11:57:04;20.47;;;11.20;;
2698;SDS011;1359;51.798;12.174;2023-04-06T11:59:30;9.73;;;8.83;;
2698;SDS011;1359;51.798;12.174;2023-04-06T12:01:56;10.00;;;9.03;;
2698;SDS011;1359;51.798;12.174;2023-04-06T12:04:22;11.90;;;9.17;;
2698;SDS011;1359;51.798;12.174;2023-04-06T12:06:47;11.33;;;9.90;;
2698;SDS011;1359;51.798;12.174;2023-04-06T12:09:13;20.70;;;10.23;;
2698;SDS011;1359;51.798;12.174;2023-04-06T12:11:38;10.10;;;8.90;;
2698;SDS011;1359;51.798;12.174;2023-04-06T12:14:04;9.57;;;8.37;;
2698;SDS011;1359;51.798;12.174;2023-04-06T12:16:33;9.97;;;8.97;;
2698;SDS011;1359;51.798;12.174;2023-04-06T12:18:59;10.00;;;8.20;;
2698;SDS011;1359;51.798;12.174;2023-04-06T12:21:26;11.70;;;9.70;;
2698;SDS011;1359;51.798;12.174;2023-04-06T12:23:51;10.80;;;8.73;;
2698;SDS011;1359;51.798;12.174;2023-04-06T12:26:16;10.03;;;9.03;;
2698;SDS011;1359;51.798;12.174;2023-04-06T12:28:42;10.30;;;9.20;;
2698;SDS011;1359;51.798;12.174;2023-04-06T12:31:14;12.37;;;8.83;;
2698;SDS011;1359;51.798;12.174;2023-04-06T12:33:39;11.70;;;8.97;;
2698;SDS011;1359;51.798;12.174;2023-04-06T12:36:10;9.70;;;8.77;;
2698;SDS011;1359;51.798;12.174;2023-04-06T12:38:36;14.00;;;10.00;;
2698;SDS011;1359;51.798;12.174;2023-04-06T12:41:03;11.73;;;9.27;;
2698;SDS011;1359;51.798;12.174;2023-04-06T12:43:28;11.23;;;8.50;;
2698;SDS011;1359;51.798;12.174;2023-04-06T12:45:53;12.43;;;10.40;;
2698;SDS011;1359;51.798;12.174;2023-04-06T12:48:19;11.87;;;9.27;;
2698;SDS011;1359;51.798;12.174;2023-04-06T12:50:44;13.53;;;10.60;;
2698;SDS011;1359;51.798;12.174;2023-04-06T12:53:09;12.37;;;11.17;;
2698;SDS011;1359;51.798;12.174;2023-04-06T12:55:35;12.50;;;11.20;;
2698;SDS011;1359;51.798;12.174;2023-04-06T12:58:00;9.67;;;8.47;;
2698;SDS011;1359;51.798;12.174;2023-04-06T13:00:26;11.77;;;10.50;;
2698;SDS011;1359;51.798;12.174;2023-04-06T13:02:51;11.37;;;9.33;;
2698;SDS011;1359;51.798;12.174;2023-04-06T13:05:17;11.63;;;9.20;;
2698;SDS011;1359;51.798;12.174;2023-04-06T13:07:44;9.27;;;8.30;;
2698;SDS011;1359;51.798;12.174;2023-04-06T13:10:09;13.80;;;9.93;;
2698;SDS011;1359;51.798;12.174;2023-04-06T13:12:34;10.20;;;9.20;;
2698;SDS011;1359;51.798;12.174;2023-04-06T13:15:00;11.90;;;9.00;;
2698;SDS011;1359;51.798;12.174;2023-04-06T13:17:26;20.10;;;9.60;;
2698;SDS011;1359;51.798;12.174;2023-04-06T13:19:52;13.90;;;10.17;;
2698;SDS011;1359;51.798;12.174;2023-04-06T13:22:17;14.70;;;10.20;;
2698;SDS011;1359;51.798;12.174;2023-04-06T13:24:42;11.70;;;10.30;;
2698;SDS011;1359;51.798;12.174;2023-04-06T13:27:08;11.73;;;10.17;;
2698;SDS011;1359;51.798;12.174;2023-04-06T13:29:33;11.40;;;10.30;;
2698;SDS011;1359;51.798;12.174;2023-04-06T13:31:59;11.70;;;9.83;;
2698;SDS011;1359;51.798;12.174;2023-04-06T13:34:24;15.23;;;10.50;;
2698;SDS011;1359;51.798;12.174;2023-04-06T13:36:50;10.83;;;9.73;;
2698;SDS011;1359;51.798;12.174;2023-04-06T13:39:15;10.13;;;9.13;;
2698;SDS011;1359;51.798;12.174;2023-04-06T13:41:41;9.80;;;8.00;;
2698;SDS011;1359;51.798;12.174;2023-04-06T13:44:06;9.00;;;7.97;;
2698;SDS011;1359;51.798;12.174;2023-04-06T13:46:31;17.23;;;8.87;;
2698;SDS011;1359;51.798;12.174;2023-04-06T13:48:57;12.27;;;9.57;;
2698;SDS011;1359;51.798;12.174;2023-04-06T13:51:22;10.87;;;9.77;;
2698;SDS011;1359;51.798;12.174;2023-04-06T13:53:47;11.90;;;9.67;;
2698;SDS011;1359;51.798;12.174;2023-04-06T13:56:15;9.00;;;8.07;;
2698;SDS011;1359;51.798;12.174;2023-04-06T13:58:40;9.97;;;8.90;;
2698;SDS011;1359;51.798;12.174;2023-04-06T14:01:06;11.90;;;10.70;;
2698;SDS011;1359;51.798;12.174;2023-04-06T14:03:32;10.10;;;9.20;;
2698;SDS011;1359;51.798;12.174;2023-04-06T14:05:57;9.67;;;8.87;;
2698;SDS011;1359;51.798;12.174;2023-04-06T14:08:22;12.13;;;10.03;;
2698;SDS011;1359;51.798;12.174;2023-04-06T14:10:48;12.50;;;10.10;;
2698;SDS011;1359;51.798;12.174;2023-04-06T14:13:13;10.67;;;9.73;;
2698;SDS011;1359;51.798;12.174;2023-04-06T14:15:38;10.97;;;9.60;;
2698;SDS011;1359;51.798;12.174;2023-04-06T14:18:04;14.47;;;9.80;;
2698;SDS011;1359;51.798;12.174;2023-04-06T14:20:32;10.47;;;9.47;;
2698;SDS011;1359;51.798;12.174;2023-04-06T14:22:59;10.73;;;9.30;;
2698;SDS011;1359;51.798;12.174;2023-04-06T14:25:24;11.67;;;8.77;;
2698;SDS011;1359;51.798;12.174;2023-04-06T14:27:50;11.80;;;8.50;;
2698;SDS011;1359;51.798;12.174;2023-04-06T14:30:15;12.03;;;9.27;;
2698;SDS011;1359;51.798;12.174;2023-04-06T14:32:41;9.83;;;8.90;;
2698;SDS011;1359;51.798;12.174;2023-04-06T14:35:07;10.80;;;8.17;;
2698;SDS011;1359;51.798;12.174;2023-04-06T14:37:32;9.30;;;8.40;;
2698;SDS011;1359;51.798;12.174;2023-04-06T14:39:57;20.70;;;13.90;;
2698;SDS011;1359;51.798;12.174;2023-04-06T14:42:23;10.73;;;9.63;;
2698;SDS011;1359;51.798;12.174;2023-04-06T14:44:48;9.87;;;8.87;;
2698;SDS011;1359;51.798;12.174;2023-04-06T14:47:14;12.07;;;9.27;;
2698;SDS011;1359;51.798;12.174;2023-04-06T14:49:45;11.10;;;9.20;;
2698;SDS011;1359;51.798;12.174;2023-04-06T14:52:10;10.43;;;9.10;;
2698;SDS011;1359;51.798;12.174;2023-04-06T14:54:36;12.83;;;9.47;;